Time;durP1;ratioP1;P1;durP2;ratioP2;P2;SDS_P1;SDS_P2;PMS_P1;PMS_P2;Temp;Humidity;BMP_temperature;BMP_pressure;BME280_temperature;BME280_humidity;BME280_pressure;Samples;Min_cycle;Max_cycle;Signal;HPM_P1;HPM_P2
2023/01/16 00:00:55;;;;;;;6.60;1.08;;;;;;;5.87;64.83;99751.59;4986621;28;20165;-53
2023/01/16 00:03:21;;;;;;;4.97;1.00;;;;;;;5.87;64.68;99746.38;4983240;28;20226;-52
2023/01/16 00:05:47;;;;;;;5.18;0.85;;;;;;;5.86;64.96;99742.06;4986716;28;20534;-53
2023/01/16 00:08:13;;;;;;;3.10;1.27;;;;;;;5.84;65.03;99742.16;4980168;28;20118;-52
2023/01/16 00:10:39;;;;;;;3.22;0.70;;;;;;;5.83;65.24;99740.47;4987549;28;20079;-53
2023/01/16 00:13:04;;;;;;;3.30;1.08;;;;;;;5.82;65.34;99735.34;4982446;28;20090;-55
2023/01/16 00:15:30;;;;;;;2.10;1.02;;;;;;;5.74;65.32;99747.03;4990204;28;20166;-53
2023/01/16 00:17:55;;;;;;;1.15;0.50;;;;;;;5.64;65.62;99738.03;4991044;28;20577;-51
2023/01/16 00:20:21;;;;;;;4.60;1.02;;;;;;;5.58;65.63;99740.94;4983312;28;20124;-53
2023/01/16 00:22:47;;;;;;;1.95;0.85;;;;;;;5.63;66.04;99744.16;4988560;28;20197;-52
2023/01/16 00:25:13;;;;;;;5.00;0.90;;;;;;;5.67;65.78;99734.41;4986452;28;20214;-52
2023/01/16 00:27:38;;;;;;;3.42;0.95;;;;;;;5.70;65.96;99737.69;4993828;28;20095;-50
2023/01/16 00:30:05;;;;;;;1.67;0.95;;;;;;;5.73;65.88;99740.13;4992578;28;20117;-51
2023/01/16 00:32:30;;;;;;;5.82;1.20;;;;;;;5.74;65.44;99736.59;4989730;28;20117;-54
2023/01/16 00:34:56;;;;;;;4.78;0.70;;;;;;;5.76;65.68;99739.09;4990978;28;20106;-51
2023/01/16 00:37:21;;;;;;;2.15;0.70;;;;;;;5.75;65.39;99734.81;4984973;28;20087;-51
2023/01/16 00:39:47;;;;;;;1.63;0.57;;;;;;;5.76;65.68;99739.09;4984007;28;20625;-52
2023/01/16 00:42:12;;;;;;;1.98;0.80;;;;;;;5.75;65.66;99740.91;4989716;28;20085;-51
2023/01/16 00:44:38;;;;;;;2.63;0.80;;;;;;;5.74;65.57;99733.97;4993698;28;20136;-51
2023/01/16 00:47:04;;;;;;;3.47;0.70;;;;;;;5.77;65.76;99735.56;4989464;28;20109;-51
2023/01/16 00:49:30;;;;;;;3.97;0.45;;;;;;;5.76;65.89;99734.75;4985733;28;20095;-55
2023/01/16 00:51:55;;;;;;;3.67;0.82;;;;;;;5.77;65.71;99733.81;4984391;28;20083;-51
2023/01/16 00:54:21;;;;;;;4.43;0.70;;;;;;;5.77;65.62;99731.22;4984237;28;20089;-54
2023/01/16 00:56:46;;;;;;;0.88;0.57;;;;;;;5.76;65.59;99742.59;4982616;28;20099;-53
2023/01/16 00:59:12;;;;;;;3.42;0.57;;;;;;;5.75;65.82;99732.19;4985476;28;20136;-51
2023/01/16 01:01:37;;;;;;;6.53;0.80;;;;;;;5.76;65.70;99739.97;4990058;28;20078;-52
2023/01/16 01:04:03;;;;;;;4.72;0.88;;;;;;;5.77;65.58;99736.44;4985593;28;20174;-51
2023/01/16 01:06:29;;;;;;;2.22;0.90;;;;;;;5.77;65.59;99736.44;4984401;28;20099;-51
2023/01/16 01:08:54;;;;;;;3.58;0.82;;;;;;;5.76;66.16;99739.97;4984309;28;20101;-54
2023/01/16 01:11:20;;;;;;;3.15;0.90;;;;;;;5.75;65.90;99737.44;5008752;28;20089;-55
2023/01/16 01:13:46;;;;;;;1.55;0.68;;;;;;;5.75;66.27;99740.91;4991442;28;20078;-53
2023/01/16 01:16:12;;;;;;;4.45;0.98;;;;;;;5.72;66.03;99735.84;4980556;28;20549;-53
2023/01/16 01:18:38;;;;;;;3.95;0.73;;;;;;;5.68;66.22;99734.31;4993778;28;20094;-52
2023/01/16 01:21:04;;;;;;;3.42;1.38;;;;;;;5.68;66.35;99739.53;4986202;28;20124;-53
2023/01/16 01:23:29;;;;;;;4.57;0.90;;;;;;;5.71;66.34;99741.97;4984623;28;20166;-54
2023/01/16 01:25:55;;;;;;;4.38;1.67;;;;;;;5.71;66.07;99741.16;4988044;28;20234;-52
2023/01/16 01:28:20;;;;;;;2.53;0.75;;;;;;;5.73;66.26;99732.28;4988307;28;20612;-52
2023/01/16 01:30:46;;;;;;;3.55;0.70;;;;;;;5.71;66.29;99747.19;4992013;28;20082;-53
2023/01/16 01:33:12;;;;;;;3.70;1.45;;;;;;;5.72;66.41;99743.66;4987943;28;20083;-51
2023/01/16 01:35:38;;;;;;;2.08;0.90;;;;;;;5.76;66.33;99733.88;4988572;28;20086;-52
2023/01/16 01:38:03;;;;;;;3.88;0.90;;;;;;;5.78;66.14;99745.94;4985599;28;20090;-51
2023/01/16 01:40:29;;;;;;;1.23;0.60;;;;;;;5.79;66.54;99750.25;4986771;28;20133;-51
2023/01/16 01:42:55;;;;;;;2.05;0.80;;;;;;;5.80;66.57;99740.63;4989234;28;20161;-52
2023/01/16 01:45:26;;;;;;;1.85;0.68;;;;;;;5.81;66.42;99734.50;4983921;28;20129;-53
2023/01/16 01:48:03;;;;;;;3.28;0.77;;;;;;;5.82;66.13;99737.97;4991841;28;20095;-52
2023/01/16 01:50:50;;;;;;;4.07;0.70;;;;;;;5.82;66.11;99743.19;4985712;28;20492;-52
2023/01/16 01:53:29;;;;;;;2.92;0.75;;;;;;;5.83;66.22;99732.66;4984526;28;20153;-51
2023/01/16 01:55:57;;;;;;;3.33;0.90;;;;;;;5.83;66.31;99726.56;4986924;28;20101;-53
2023/01/16 01:58:26;;;;;;;3.35;0.65;;;;;;;5.83;66.21;99737.00;4984031;28;20160;-52
2023/01/16 02:00:55;;;;;;;2.17;0.77;;;;;;;5.82;66.32;99735.34;4982387;28;20087;-53
2023/01/16 02:03:32;;;;;;;3.85;0.75;;;;;;;5.84;66.34;99736.09;4984242;28;20125;-50
2023/01/16 02:06:00;;;;;;;5.38;1.05;;;;;;;5.85;66.08;99737.78;4984305;28;20098;-51
2023/01/16 02:08:31;;;;;;;3.65;0.85;;;;;;;5.86;66.09;99736.84;4982022;28;20121;-52
2023/01/16 02:11:25;;;;;;;3.00;0.95;;;;;;;5.86;66.27;99747.28;4989057;28;20103;-54
2023/01/16 02:14:13;;;;;;;2.65;0.88;;;;;;;5.85;66.23;99740.38;4985317;28;20144;-52
2023/01/16 02:19:52;;;;;;;1.90;0.75;;;;;;;5.85;66.41;99743.00;4987039;28;20117;-50
2023/01/16 02:22:39;;;;;;;4.38;1.55;;;;;;;5.86;66.11;99735.09;4979916;28;20089;-55
2023/01/16 02:25:26;;;;;;;7.15;1.58;;;;;;;5.86;66.13;99739.47;4986380;28;20141;-51
2023/01/16 02:28:07;;;;;;;2.55;0.98;;;;;;;5.88;66.07;99727.16;4988657;28;20184;-51
2023/01/16 02:30:54;;;;;;;2.80;1.13;;;;;;;5.86;66.23;99729.03;4988033;28;20185;-51
2023/01/16 02:33:58;;;;;;;2.95;1.05;;;;;;;5.85;66.51;99724.72;4982577;28;20086;-52
2023/01/16 02:36:51;;;;;;;2.80;0.82;;;;;;;5.83;66.28;99719.59;4977328;28;20476;-51
2023/01/16 02:39:26;;;;;;;1.83;0.57;;;;;;;5.84;66.03;99730.88;4988117;28;20501;-54
2023/01/16 02:42:23;;;;;;;4.22;0.80;;;;;;;5.83;66.49;99729.19;4980964;28;20074;-53
2023/01/16 02:45:03;;;;;;;2.30;0.60;;;;;;;5.83;66.14;99729.19;4990161;28;20527;-52
2023/01/16 02:47:38;;;;;;;3.53;0.80;;;;;;;5.80;66.39;99724.97;4987744;28;20098;-52
2023/01/16 02:50:39;;;;;;;1.52;0.75;;;;;;;5.79;66.34;99716.31;4985491;28;20070;-51
2023/01/16 02:53:21;;;;;;;4.78;1.35;;;;;;;5.78;66.55;99712.03;4983365;28;20133;-52
2023/01/16 02:55:53;;;;;;;;;;;;;;;5.74;66.49;99714.88;4990994;28;20158;-52
2023/01/16 02:58:20;;;;;;;0.93;0.80;;;;;;;5.75;66.43;99717.41;4991412;28;19993;-51
2023/01/16 03:01:03;;;;;;;4.22;1.40;;;;;;;5.76;66.22;99713.00;4990439;28;20066;-54
2023/01/16 03:03:44;;;;;;;2.33;0.63;;;;;;;5.76;66.31;99719.09;4992530;28;20082;-53
2023/01/16 03:06:24;;;;;;;4.03;0.80;;;;;;;5.75;66.63;99712.19;4985698;28;21181;-54
2023/01/16 03:09:31;;;;;;;5.70;1.13;;;;;;;5.76;66.34;99713.88;4980609;28;20098;-53
2023/01/16 03:12:29;;;;;;;3.25;0.70;;;;;;;5.76;66.40;99710.41;4985830;28;20124;-53
2023/01/16 03:15:11;;;;;;;2.58;0.77;;;;;;;5.75;66.50;99706.97;4983640;28;20087;-56
2023/01/16 03:17:39;;;;;;;2.43;0.70;;;;;;;5.75;66.80;99711.31;4988166;28;20083;-53
2023/01/16 03:20:26;;;;;;;2.42;0.60;;;;;;;5.70;66.38;99708.97;4985185;28;20322;-51
2023/01/16 03:23:05;;;;;;;2.65;0.85;;;;;;;5.69;66.54;99712.50;4988794;28;20097;-51
2023/01/16 03:26:27;;;;;;;0.85;0.52;;;;;;;5.61;66.18;99712.09;4983402;28;20090;-53
2023/01/16 03:29:19;;;;;;;1.67;0.70;;;;;;;5.58;66.84;99707.88;4950662;28;20100;-51
2023/01/16 03:31:57;;;;;;;3.10;0.88;;;;;;;5.55;66.81;99704.56;4985188;28;20086;-53
2023/01/16 03:34:44;;;;;;;4.55;1.00;;;;;;;5.54;67.04;99710.72;4992044;28;20086;-53
2023/01/16 03:37:15;;;;;;;3.35;1.00;;;;;;;5.52;67.06;99710.81;4981314;28;20098;-51
2023/01/16 03:39:49;;;;;;;2.13;0.95;;;;;;;5.45;67.12;99699.84;4986873;28;20094;-52
2023/01/16 03:42:24;;;;;;;2.00;1.33;;;;;;;5.40;67.13;99704.47;4985683;28;20087;-50
2023/01/16 03:44:59;;;;;;;1.35;0.60;;;;;;;5.34;67.36;99702.19;4992360;28;20132;-51
2023/01/16 03:47:34;;;;;;;2.28;0.80;;;;;;;5.32;67.10;99704.03;4986064;28;20079;-54
2023/01/16 03:50:05;;;;;;;3.03;0.93;;;;;;;5.34;67.05;99702.19;4987506;28;20206;-54
2023/01/16 03:52:48;;;;;;;3.33;0.88;;;;;;;5.38;66.95;99702.88;4995294;28;20078;-52
2023/01/16 03:55:19;;;;;;;2.28;0.77;;;;;;;5.42;67.31;99686.97;4992931;28;20077;-50
2023/01/16 03:57:44;;;;;;;1.70;0.63;;;;;;;5.42;67.08;99683.53;4983768;28;20140;-53
2023/01/16 04:00:11;;;;;;;3.63;0.82;;;;;;;5.36;67.25;99689.91;4988588;28;20086;-52
2023/01/16 04:02:46;;;;;;;2.88;0.65;;;;;;;5.31;67.12;99687.53;4989212;28;20201;-52
2023/01/16 04:05:19;;;;;;;1.40;0.65;;;;;;;5.24;67.55;99685.31;4992328;28;20155;-50
2023/01/16 04:07:54;;;;;;;2.60;0.50;;;;;;;5.19;67.57;99683.81;4990591;28;20105;-51
2023/01/16 04:10:26;;;;;;;3.72;0.60;;;;;;;5.14;67.83;99678.00;4994021;28;20152;-54
2023/01/16 04:12:56;;;;;;;3.58;1.10;;;;;;;5.15;67.53;99682.28;4983911;28;20083;-52
2023/01/16 04:15:25;;;;;;;4.88;0.80;;;;;;;5.19;67.53;99682.97;4988210;28;20087;-53
2023/01/16 04:17:51;;;;;;;2.80;0.95;;;;;;;5.23;67.50;99678.41;4986684;28;20091;-52
2023/01/16 04:20:17;;;;;;;4.47;1.50;;;;;;;5.26;67.83;99667.81;4987168;28;20075;-52
2023/01/16 04:22:47;;;;;;;4.80;1.70;;;;;;;5.30;67.44;99664.97;4990344;28;20071;-55
2023/01/16 04:25:13;;;;;;;2.38;0.57;;;;;;;5.33;67.44;99667.41;4989606;28;20075;-52
2023/01/16 04:27:38;;;;;;;3.28;0.80;;;;;;;5.37;67.57;99662.03;4986324;28;20186;-50
2023/01/16 04:30:04;;;;;;;3.17;0.50;;;;;;;5.39;67.68;99662.81;4983314;28;20132;-54
2023/01/16 04:32:30;;;;;;;5.65;0.80;;;;;;;5.40;67.63;99657.50;4991494;28;20546;-52
2023/01/16 04:34:55;;;;;;;2.80;0.90;;;;;;;5.43;67.27;99649.50;4993113;28;20082;-52
2023/01/16 04:37:21;;;;;;;11.85;4.03;;;;;;;5.44;67.54;99645.97;4987109;28;20111;-51
2023/01/16 04:39:47;;;;;;;4.57;1.85;;;;;;;5.45;67.41;99647.66;4988003;28;20126;-53
2023/01/16 04:42:13;;;;;;;2.88;0.80;;;;;;;5.41;67.29;99645.31;4987408;28;20083;-53
2023/01/16 04:44:38;;;;;;;4.18;0.70;;;;;;;5.36;67.26;99642.97;4984920;28;20145;-52
2023/01/16 04:47:04;;;;;;;4.07;0.98;;;;;;;5.32;67.66;99636.22;4982589;28;20114;-55
2023/01/16 04:49:30;;;;;;;1.33;0.60;;;;;;;5.31;67.84;99637.97;4988746;28;20107;-52
2023/01/16 04:51:55;;;;;;;3.65;0.60;;;;;;;5.28;67.57;99634.69;4991842;28;20086;-51
2023/01/16 04:54:21;;;;;;;3.05;1.13;;;;;;;5.30;67.64;99630.22;4990391;28;20079;-51
2023/01/16 04:56:46;;;;;;;3.67;0.80;;;;;;;5.31;67.76;99632.75;4979808;28;20095;-51
2023/01/16 04:59:15;;;;;;;5.22;1.83;;;;;;;5.32;67.79;99633.59;4988617;28;20103;-54
2023/01/16 05:01:41;;;;;;;7.35;1.90;;;;;;;5.32;67.99;99620.56;4987588;28;20083;-52
2023/01/16 05:04:09;;;;;;;3.03;1.00;;;;;;;5.33;67.95;99617.03;4989362;28;20136;-51
2023/01/16 05:06:35;;;;;;;2.85;1.00;;;;;;;5.30;68.05;99620.63;4990252;28;20086;-54
2023/01/16 05:09:02;;;;;;;3.00;1.00;;;;;;;5.27;67.89;99622.56;4989466;28;20138;-52
2023/01/16 05:11:27;;;;;;;1.70;0.80;;;;;;;5.23;68.18;99626.25;4989201;28;20561;-53
2023/01/16 05:13:53;;;;;;;2.20;0.77;;;;;;;5.18;68.20;99619.53;4988294;28;20091;-53
2023/01/16 05:16:18;;;;;;;2.83;0.63;;;;;;;5.10;68.31;99611.25;4987037;28;20079;-55
2023/01/16 05:18:44;;;;;;;3.17;0.73;;;;;;;5.05;68.72;99618.50;4987926;28;20610;-54
2023/01/16 05:21:09;;;;;;;5.32;1.58;;;;;;;5.08;68.76;99618.31;4987767;28;20617;-54
2023/01/16 05:23:36;;;;;;;4.22;1.00;;;;;;;5.12;68.63;99624.25;4989936;28;20071;-52
2023/01/16 05:26:03;;;;;;;4.47;1.05;;;;;;;5.15;68.47;99614.47;4989012;28;20094;-53
2023/01/16 05:28:28;;;;;;;2.65;1.25;;;;;;;5.18;68.58;99609.09;4983033;28;20091;-55
2023/01/16 05:30:54;;;;;;;1.90;0.75;;;;;;;5.22;68.43;99598.50;4968386;28;20118;-53
2023/01/16 05:33:19;;;;;;;2.67;0.82;;;;;;;5.23;68.17;99601.03;4978748;28;20102;-53
2023/01/16 05:35:46;;;;;;;4.63;1.35;;;;;;;5.24;68.27;99594.03;4990227;28;20082;-53
2023/01/16 05:38:15;;;;;;;4.47;0.82;;;;;;;5.23;68.53;99589.75;4972749;28;22138;-51
2023/01/16 05:40:41;;;;;;;3.15;1.17;;;;;;;5.23;68.68;99589.75;4971746;28;20556;-57
2023/01/16 05:43:07;;;;;;;5.05;1.08;;;;;;;5.24;68.42;99586.22;4978773;28;20218;-52
2023/01/16 05:45:32;;;;;;;4.93;1.13;;;;;;;5.24;68.55;99586.22;4983915;28;20110;-53
2023/01/16 05:47:58;;;;;;;3.60;1.33;;;;;;;5.21;68.46;99589.84;4984959;28;20126;-52
2023/01/16 05:50:23;;;;;;;4.07;1.35;;;;;;;5.19;68.70;99582.09;4985755;28;20617;-51
2023/01/16 05:52:49;;;;;;;10.05;2.53;;;;;;;5.17;69.04;99583.94;4985917;28;20153;-52
2023/01/16 05:55:15;;;;;;;3.75;0.98;;;;;;;5.14;69.10;99586.72;4978339;28;20091;-52
2023/01/16 05:57:41;;;;;;;7.18;2.38;;;;;;;5.09;69.18;99586.09;4976506;28;20083;-52
2023/01/16 06:00:07;;;;;;;5.13;1.33;;;;;;;5.05;69.29;99587.22;4980118;28;20093;-53
2023/01/16 06:02:33;;;;;;;3.25;1.20;;;;;;;4.94;69.03;99579.09;4986883;28;20074;-51
2023/01/16 06:04:58;;;;;;;4.13;1.08;;;;;;;4.82;69.25;99571.00;4980738;28;20157;-54
2023/01/16 06:07:23;;;;;;;2.08;0.57;;;;;;;4.71;69.49;99570.75;4983712;28;20099;-54
2023/01/16 06:09:49;;;;;;;4.00;0.90;;;;;;;4.58;69.95;99573.13;4989641;28;20090;-52
2023/01/16 06:12:16;;;;;;;5.68;1.15;;;;;;;4.50;69.93;99577.91;4984457;28;20535;-52
2023/01/16 06:14:42;;;;;;;2.55;1.00;;;;;;;4.46;70.50;99579.84;4998397;28;20185;-50
2023/01/16 06:17:08;;;;;;;6.10;1.10;;;;;;;4.48;70.44;99583.19;4994855;28;20158;-54
2023/01/16 06:19:33;;;;;;;6.15;1.27;;;;;;;4.53;70.04;99580.38;4993202;28;20098;-51
2023/01/16 06:21:58;;;;;;;2.60;0.90;;;;;;;4.52;70.20;99578.69;4987258;28;20561;-54
2023/01/16 06:24:24;;;;;;;3.97;1.50;;;;;;;4.55;69.96;99574.13;4997487;28;20546;-52
2023/01/16 06:26:49;;;;;;;2.88;1.00;;;;;;;4.58;69.99;99574.00;4990576;28;20562;-52
2023/01/16 06:29:15;;;;;;;4.38;1.20;;;;;;;4.60;69.85;99575.69;4987562;28;20181;-55
2023/01/16 06:31:41;;;;;;;2.65;1.50;;;;;;;4.62;69.76;99573.81;4988094;28;20106;-53
2023/01/16 06:34:06;;;;;;;2.22;1.02;;;;;;;4.60;69.64;99573.91;4989485;28;20079;-53
2023/01/16 06:36:31;;;;;;;3.13;1.58;;;;;;;4.59;69.80;99569.59;4990296;28;20453;-51
2023/01/16 06:38:57;;;;;;;3.35;1.58;;;;;;;4.65;69.57;99568.44;4984537;28;20148;-50
2023/01/16 06:41:22;;;;;;;4.38;1.33;;;;;;;4.64;69.77;99561.53;4984890;28;20162;-51
2023/01/16 06:43:48;;;;;;;2.75;1.00;;;;;;;4.65;69.57;99558.03;4987428;28;20469;-50
2023/01/16 06:46:13;;;;;;;5.07;1.15;;;;;;;4.67;69.58;99561.41;4987692;28;20524;-50
2023/01/16 06:48:41;;;;;;;3.90;1.48;;;;;;;4.68;69.75;99553.50;4995553;28;20111;-52
2023/01/16 06:51:07;;;;;;;5.70;1.67;;;;;;;4.67;69.81;99550.97;4993713;28;20075;-53
2023/01/16 06:53:33;;;;;;;2.22;1.10;;;;;;;4.71;69.68;99563.75;4993325;28;20090;-51
2023/01/16 06:55:58;;;;;;;3.80;1.38;;;;;;;4.71;69.71;99563.75;4991311;28;20074;-54
2023/01/16 06:58:24;;;;;;;2.65;0.93;;;;;;;4.69;69.94;99560.38;4988383;28;20102;-51
2023/01/16 07:00:50;;;;;;;5.78;1.25;;;;;;;4.69;69.59;99560.38;4990048;28;20538;-51
2023/01/16 07:03:17;;;;;;;4.63;1.05;;;;;;;4.67;69.83;99561.41;4991827;28;20070;-51
2023/01/16 07:05:44;;;;;;;4.72;1.17;;;;;;;4.59;69.77;99551.38;4990355;28;20091;-51
2023/01/16 07:08:09;;;;;;;2.08;1.02;;;;;;;4.54;70.02;99561.19;4992216;28;20103;-51
2023/01/16 07:10:35;;;;;;;5.70;0.95;;;;;;;4.51;70.01;99556.16;4992627;28;20077;-51
2023/01/16 07:13:01;;;;;;;3.63;1.52;;;;;;;4.50;70.20;99568.31;4989469;28;20076;-51
2023/01/16 07:23:56;;;;;;;8.52;1.30;;;;;;;4.51;69.54;99551.75;4992222;28;20109;-51
2023/01/16 07:26:22;;;;;;;5.38;1.88;;;;;;;4.48;69.46;99541.50;4990320;28;20551;-53
2023/01/16 07:28:49;;;;;;;4.40;1.00;;;;;;;4.49;69.61;99543.19;4987871;28;20103;-50
2023/01/16 07:31:16;;;;;;;3.17;1.00;;;;;;;4.51;69.40;99536.13;4978128;28;20113;-52
2023/01/16 07:33:41;;;;;;;1.13;0.47;;;;;;;4.50;69.62;99537.06;4990378;28;20082;-52
2023/01/16 07:36:07;;;;;;;4.07;1.00;;;;;;;4.52;69.33;99535.22;4987022;28;20604;-53
2023/01/16 07:38:32;;;;;;;2.88;1.10;;;;;;;4.55;69.30;99536.81;4982012;28;20197;-54
2023/01/16 07:40:58;;;;;;;2.30;1.08;;;;;;;4.54;69.11;99538.59;4982130;28;20177;-52
2023/01/16 07:43:23;;;;;;;7.15;1.25;;;;;;;4.55;69.32;99537.66;4983698;28;20514;-52
2023/01/16 07:45:52;;;;;;;5.80;1.48;;;;;;;4.61;69.51;99530.47;4990804;28;20141;-52
2023/01/16 07:48:21;;;;;;;8.63;1.35;;;;;;;4.63;69.22;99524.25;4987761;28;20478;-54
2023/01/16 07:50:56;;;;;;;5.68;1.85;;;;;;;4.62;69.21;99521.69;4993524;28;20189;-53
2023/01/16 07:53:23;;;;;;;6.07;1.40;;;;;;;4.65;69.05;99521.53;4993521;28;20438;-56
2023/01/16 07:55:50;;;;;;;7.05;1.20;;;;;;;4.68;68.96;99516.19;4996965;28;20489;-53
2023/01/16 07:58:16;;;;;;;7.18;1.77;;;;;;;4.72;69.02;99515.94;4986297;28;20189;-53
2023/01/16 08:00:42;;;;;;;5.47;1.20;;;;;;;4.76;68.76;99502.75;4992022;28;20079;-52
2023/01/16 08:03:07;;;;;;;3.55;1.05;;;;;;;4.79;68.55;99513.81;4990360;28;20218;-52
2023/01/16 08:05:33;;;;;;;4.30;1.10;;;;;;;4.77;68.74;99504.41;4992421;28;20141;-53
2023/01/16 08:07:58;;;;;;;1.38;0.80;;;;;;;4.72;68.81;99504.69;4990499;28;20095;-51
2023/01/16 08:10:24;;;;;;;4.57;1.13;;;;;;;4.67;68.89;99504.91;4992424;28;20098;-51
2023/01/16 08:12:49;;;;;;;5.25;1.25;;;;;;;4.65;68.75;99508.50;4988994;28;20098;-54
2023/01/16 08:15:15;;;;;;;4.78;1.08;;;;;;;4.57;68.80;99508.91;4987255;28;20102;-54
2023/01/16 08:17:40;;;;;;;4.00;1.25;;;;;;;4.52;69.02;99509.16;4991001;28;20071;-53
2023/01/16 08:20:07;;;;;;;5.38;1.05;;;;;;;4.48;68.98;99499.81;4988988;28;20098;-56
2023/01/16 08:22:33;;;;;;;4.25;1.20;;;;;;;4.43;69.23;99492.25;4987272;28;20087;-54
2023/01/16 08:24:58;;;;;;;6.78;2.97;;;;;;;4.38;69.28;99498.63;4986801;28;20163;-53
2023/01/16 08:27:24;;;;;;;4.43;1.15;;;;;;;4.34;69.58;99486.66;4992989;28;20117;-53
2023/01/16 08:29:49;;;;;;;3.80;1.00;;;;;;;4.37;69.32;99491.72;4996869;28;20485;-52
2023/01/16 08:32:14;;;;;;;4.32;0.82;;;;;;;4.38;69.23;99490.81;4987008;28;20091;-55
2023/01/16 08:34:42;;;;;;;2.85;0.82;;;;;;;4.42;69.21;99489.75;4982000;28;20162;-52
2023/01/16 08:37:10;;;;;;;2.88;0.90;;;;;;;4.47;68.92;99489.50;4982367;28;20076;-54
2023/01/16 08:39:36;;;;;;;7.25;1.90;;;;;;;4.50;69.10;99499.75;4982682;28;20564;-55
2023/01/16 08:53:04;;;;;;;7.20;1.42;;;;;;;5.08;67.72;99481.91;4983424;28;20141;-55
2023/01/16 08:55:30;;;;;;;6.30;1.58;;;;;;;5.17;67.99;99476.16;4986710;28;20795;-52
2023/01/16 08:57:58;;;;;;;4.20;1.45;;;;;;;5.19;67.44;99466.50;4990796;28;20099;-55
2023/01/16 09:00:25;;;;;;;4.78;1.20;;;;;;;5.23;67.47;99468.00;5007163;28;20111;-56
2023/01/16 09:02:50;;;;;;;3.35;0.90;;;;;;;5.25;67.28;99460.94;4994793;28;20158;-53
2023/01/16 09:05:16;;;;;;;2.65;1.15;;;;;;;5.20;67.72;99465.56;4991686;28;20522;-53
2023/01/16 09:07:41;;;;;;;3.25;1.02;;;;;;;5.12;67.45;99466.00;4988912;28;20641;-50
2023/01/16 09:10:08;;;;;;;3.28;1.15;;;;;;;5.00;67.89;99464.91;4986440;28;20089;-54
2023/01/16 09:15:17;;;;;;;2.92;0.88;;;;;;;4.95;68.20;99456.50;4980774;28;20102;-53
2023/01/16 09:17:43;;;;;;;5.43;1.40;;;;;;;5.08;67.81;99454.06;4988360;28;20470;-53
2023/01/16 09:20:09;;;;;;;9.93;2.00;;;;;;;5.22;67.64;99450.69;4991836;28;20129;-53
2023/01/16 09:22:34;;;;;;;7.03;1.40;;;;;;;5.36;67.41;99455.13;4983647;28;20612;-56
2023/01/16 09:25:00;;;;;;;6.05;1.45;;;;;;;5.47;67.17;99447.53;4986365;28;20713;-53
2023/01/16 09:27:26;;;;;;;4.65;1.58;;;;;;;5.57;67.16;99441.78;4987634;28;20106;-53
2023/01/16 09:29:52;;;;;;;3.88;1.23;;;;;;;5.58;66.67;99438.22;4987407;28;20079;-52
2023/01/16 09:32:18;;;;;;;7.00;1.17;;;;;;;5.48;66.89;99428.34;4994139;28;20178;-54
2023/01/16 09:34:44;;;;;;;5.13;2.08;;;;;;;5.40;66.87;99427.91;4993891;28;20501;-53
2023/01/16 09:37:10;;;;;;;5.85;1.05;;;;;;;5.29;67.24;99417.28;4991718;28;20101;-52
2023/01/16 09:39:36;;;;;;;7.78;1.50;;;;;;;5.16;67.29;99407.53;4988094;28;20470;-51
2023/01/16 09:45:08;;;;;;;4.43;1.30;;;;;;;4.95;67.55;99393.94;4992792;28;20090;-51
2023/01/16 09:47:35;;;;;;;2.97;1.17;;;;;;;4.90;67.73;99382.94;4993726;28;20565;-56
2023/01/16 09:50:26;;;;;;;5.65;1.50;;;;;;;4.83;67.41;99385.03;4998858;28;20078;-53
2023/01/16 09:58:37;;;;;;;4.47;1.83;;;;;;;4.76;67.86;99356.78;4998778;28;20105;-54
2023/01/16 10:01:04;;;;;;;4.30;1.48;;;;;;;4.75;68.05;99355.97;4991870;28;20074;-53
2023/01/16 10:03:30;;;;;;;3.97;1.30;;;;;;;4.77;67.70;99353.28;4996855;28;20075;-53
2023/01/16 10:06:42;;;;;;;4.05;1.17;;;;;;;4.75;67.57;99337.72;4993366;28;20454;-55
2023/01/16 10:09:07;;;;;;;4.97;1.27;;;;;;;4.78;68.09;99328.88;4981529;28;20197;-53
2023/01/16 10:11:56;;;;;;;2.88;1.10;;;;;;;4.80;67.52;99319.22;4990399;28;20165;-54
2023/01/16 10:14:43;;;;;;;4.68;0.93;;;;;;;4.80;67.57;99317.44;4990863;28;20098;-57
2023/01/16 10:17:44;;;;;;;4.38;1.55;;;;;;;4.83;67.45;99306.84;4992418;28;20075;-56
2023/01/16 10:20:35;;;;;;;4.60;1.52;;;;;;;4.85;67.20;99307.59;4981174;28;20086;-54
2023/01/16 10:23:51;;;;;;;1.85;1.00;;;;;;;4.82;67.40;99307.78;4995015;28;20529;-53
2023/01/16 10:26:35;;;;;;;9.35;2.97;;;;;;;4.84;67.33;99303.31;4984637;28;20187;-53
2023/01/16 10:29:33;;;;;;;4.90;1.30;;;;;;;4.86;67.28;99290.19;4992839;28;20125;-52
2023/01/16 10:32:01;;;;;;;5.57;1.73;;;;;;;4.93;67.23;99290.66;4988809;28;20245;-51
2023/01/16 10:35:05;;;;;;;5.47;2.17;;;;;;;4.92;67.13;99289.84;4985485;28;20110;-54
2023/01/16 10:37:32;;;;;;;7.40;2.22;;;;;;;4.98;67.44;99286.03;4995067;28;20097;-51
2023/01/16 10:40:01;;;;;;;9.93;2.60;;;;;;;5.03;66.98;99281.41;4988285;28;20091;-53
2023/01/16 10:50:56;;;;;;;8.32;2.03;;;;;;;5.11;66.99;99263.53;4992136;28;20121;-53
2023/01/16 10:53:22;;;;;;;3.35;1.63;;;;;;;5.14;66.88;99260.75;4985518;28;20075;-51
2023/01/16 10:55:48;;;;;;;3.60;1.40;;;;;;;5.16;67.26;99252.81;4992866;28;20082;-55
2023/01/16 10:58:25;;;;;;;3.67;1.23;;;;;;;5.18;67.13;99248.38;4992928;28;20592;-52
2023/01/16 11:00:54;;;;;;;5.63;1.25;;;;;;;5.19;66.69;99252.66;4985360;28;20132;-55
2023/01/16 11:03:32;;;;;;;3.00;1.52;;;;;;;5.17;67.04;99239.72;4983961;28;20083;-56
2023/01/16 11:06:12;;;;;;;4.68;1.40;;;;;;;5.18;67.01;99241.41;4992155;28;20086;-56
2023/01/16 11:08:40;;;;;;;3.25;1.10;;;;;;;5.23;67.08;99235.03;4987379;28;20550;-52
2023/01/16 11:18:27;;;;;;;2.72;1.25;;;;;;;5.24;66.92;99226.28;4990114;28;20079;-54
2023/01/16 11:19:27;;;;;;;7.07;2.17;;;;;;;5.31;66.72;99222.41;4992841;28;20122;-54
2023/01/16 11:22:17;;;;;;;5.90;1.85;;;;;;;5.34;66.72;99209.19;4989251;28;20090;-54
2023/01/16 11:24:44;;;;;;;6.05;1.80;;;;;;;5.35;66.99;99203.03;4987819;28;20144;-55
2023/01/16 11:27:21;;;;;;;1.30;0.85;;;;;;;5.34;66.78;99190.94;4988510;28;20548;-50
2023/01/16 11:29:46;;;;;;;5.10;1.58;;;;;;;5.38;66.65;99188.97;4985146;28;20107;-52
2023/01/16 11:32:13;;;;;;;2.45;1.13;;;;;;;5.40;66.85;99177.50;4988098;28;20168;-54
2023/01/16 11:34:46;;;;;;;5.18;1.33;;;;;;;5.42;66.59;99172.19;4990722;28;20105;-50
2023/01/16 11:37:14;;;;;;;3.88;1.20;;;;;;;5.43;66.79;99163.44;4990664;28;20079;-52
2023/01/16 11:39:40;;;;;;;3.95;0.95;;;;;;;5.44;66.95;99155.50;4984562;28;20322;-51
2023/01/16 11:47:53;;;;;;;5.20;1.92;;;;;;;5.50;66.71;99146.47;5017331;22;20198;-56
2023/01/16 11:50:38;;;;;;;7.10;1.90;;;;;;;5.53;66.44;99148.88;5006680;28;20087;-57
2023/01/16 11:53:04;;;;;;;4.32;1.58;;;;;;;5.57;66.86;99132.09;5006746;28;20129;-57
2023/01/16 11:55:45;;;;;;;4.68;3.15;;;;;;;5.59;66.49;99124.16;5003320;28;20173;-56
2023/01/16 11:58:16;;;;;;;3.22;1.15;;;;;;;5.61;66.30;99122.31;5002302;28;20083;-57
2023/01/16 12:01:27;;;;;;;6.00;1.50;;;;;;;5.63;66.53;99117.84;5010218;28;20082;-56
2023/01/16 12:04:06;;;;;;;5.93;2.20;;;;;;;5.67;66.28;99108.03;5005303;28;20098;-56
2023/01/16 12:06:52;;;;;;;5.55;2.08;;;;;;;5.69;66.61;99112.22;5006782;28;20089;-55
2023/01/16 12:09:17;;;;;;;4.72;1.45;;;;;;;5.69;66.59;99103.56;5005973;28;20178;-56
2023/01/16 12:15:07;;;;;;;5.95;2.08;;;;;;;5.70;66.13;99079.13;5007360;28;20133;-57
2023/01/16 12:17:42;;;;;;;5.63;2.40;;;;;;;5.68;66.33;99083.59;5004080;28;20092;-58
2023/01/16 12:20:18;;;;;;;7.93;2.63;;;;;;;5.70;66.33;99071.31;5010041;28;20456;-58
2023/01/16 12:23:27;;;;;;;6.00;1.75;;;;;;;5.72;66.51;99078.09;5006077;28;20074;-58
2023/01/16 12:26:01;;;;;;;5.30;1.60;;;;;;;5.77;66.43;99072.56;5006942;28;20153;-56
2023/01/16 12:28:33;;;;;;;2.65;1.33;;;;;;;5.79;66.03;99063.72;5002082;28;20106;-61
2023/01/16 12:31:20;;;;;;;4.72;1.45;;;;;;;5.84;65.86;99054.72;5008226;28;20584;-56
2023/01/16 12:34:08;;;;;;;5.30;1.75;;;;;;;5.84;66.13;99052.13;5009038;28;20094;-59
2023/01/16 12:37:00;;;;;;;3.22;1.50;;;;;;;5.84;66.11;99050.38;5008923;28;20490;-57
2023/01/16 12:39:35;;;;;;;5.90;1.80;;;;;;;5.87;65.91;99049.31;5007802;28;20209;-58
2023/01/16 12:45:47;;;;;;;5.20;2.03;;;;;;;5.89;65.68;99034.41;5006061;28;20213;-57
2023/01/16 12:48:27;;;;;;;3.83;1.40;;;;;;;5.93;66.01;99028.03;4999630;28;20121;-56
2023/01/16 12:51:20;;;;;;;6.68;2.35;;;;;;;5.94;65.34;99021.88;5008237;28;20074;-57
2023/01/16 12:53:57;;;;;;;7.40;1.73;;;;;;;5.98;65.38;99015.50;5007034;28;20078;-56
2023/01/16 12:56:42;;;;;;;9.30;2.67;;;;;;;5.99;65.57;99019.78;5007158;28;20090;-59
2023/01/16 12:59:10;;;;;;;9.30;3.20;;;;;;;6.00;65.77;99015.44;4983765;28;20165;-58
2023/01/16 13:01:40;;;;;;;5.53;2.58;;;;;;;5.99;65.35;99004.13;4992627;28;20157;-55